createdAt,value
2017-07-12T00:00:08.756Z,997.93
2017-07-12T00:01:08.797Z,997.94
2017-07-12T00:02:08.835Z,997.91
2017-07-12T00:03:08.875Z,997.87
2017-07-12T00:04:08.913Z,997.87
2017-07-12T00:05:08.954Z,997.88
2017-07-12T00:06:08.995Z,997.88
2017-07-12T00:07:09.033Z,997.85
2017-07-12T00:08:09.071Z,997.91
2017-07-12T00:09:09.108Z,997.86
2017-07-12T00:10:09.148Z,997.88
2017-07-12T00:11:09.191Z,997.88
2017-07-12T00:12:09.227Z,997.88
2017-07-12T00:13:09.267Z,997.84
2017-07-12T00:14:09.308Z,997.84
2017-07-12T00:15:09.347Z,997.83
2017-07-12T00:16:09.384Z,997.88
2017-07-12T00:17:09.441Z,997.91
2017-07-12T00:18:09.466Z,997.89
2017-07-12T00:19:09.506Z,997.87
2017-07-12T00:20:09.544Z,997.8
2017-07-12T00:21:09.582Z,997.77
2017-07-12T00:22:09.623Z,997.77
2017-07-12T00:23:09.660Z,997.79
2017-07-12T00:24:09.703Z,997.77
2017-07-12T00:25:09.742Z,997.83
2017-07-12T00:26:09.782Z,997.89
2017-07-12T00:27:09.817Z,997.84
2017-07-12T00:28:09.860Z,997.85
2017-07-12T00:29:09.897Z,997.84
2017-07-12T00:30:09.938Z,997.82
2017-07-12T00:31:09.979Z,997.78
2017-07-12T00:32:10.014Z,997.76
2017-07-12T00:33:10.057Z,997.75
2017-07-12T00:34:10.093Z,997.73
2017-07-12T00:35:10.135Z,997.75
2017-07-12T00:36:10.173Z,997.76
2017-07-12T00:37:10.214Z,997.71
2017-07-12T00:38:10.254Z,997.76
2017-07-12T00:39:10.291Z,997.75
2017-07-12T00:40:10.334Z,997.69
2017-07-12T00:41:10.371Z,997.69
2017-07-12T00:42:10.411Z,997.65
2017-07-12T00:43:10.450Z,997.65
2017-07-12T00:44:10.490Z,997.64
2017-07-12T00:45:10.529Z,997.6
2017-07-12T00:46:10.566Z,997.56
2017-07-12T00:47:10.608Z,997.58
2017-07-12T00:48:10.644Z,997.58
2017-07-12T00:49:10.685Z,997.61
2017-07-12T00:50:10.723Z,997.58
2017-07-12T00:51:10.762Z,997.58
2017-07-12T00:52:10.800Z,997.56
2017-07-12T00:53:10.840Z,997.61
2017-07-12T00:54:10.882Z,997.59
2017-07-12T00:55:10.927Z,997.59
2017-07-12T00:56:10.961Z,997.55
2017-07-12T00:57:11.000Z,997.51
2017-07-12T00:58:11.037Z,997.53
2017-07-12T00:59:11.079Z,997.54
2017-07-12T01:00:11.119Z,997.51
2017-07-12T01:01:11.157Z,997.51
2017-07-12T01:02:11.196Z,997.55
2017-07-12T01:03:11.234Z,997.51
2017-07-12T01:04:11.271Z,997.55
2017-07-12T01:05:11.310Z,997.53
2017-07-12T01:06:11.354Z,997.53
2017-07-12T01:07:11.390Z,997.53
2017-07-12T01:08:11.430Z,997.52
2017-07-12T01:09:11.470Z,997.55
2017-07-12T01:10:11.506Z,997.56
2017-07-12T01:11:11.548Z,997.55
2017-07-12T01:12:11.587Z,997.59
2017-07-12T01:13:11.624Z,997.57
2017-07-12T01:14:11.664Z,997.59
2017-07-12T01:15:11.703Z,997.58
2017-07-12T01:16:11.741Z,997.61
2017-07-12T01:17:11.783Z,997.54
2017-07-12T01:18:11.822Z,997.56
2017-07-12T01:19:11.860Z,997.52
2017-07-12T01:20:11.897Z,997.54
2017-07-12T01:21:11.936Z,997.56
2017-07-12T01:22:11.977Z,997.51
2017-07-12T01:23:12.017Z,997.51
2017-07-12T01:24:12.054Z,997.48
2017-07-12T01:25:12.094Z,997.47
2017-07-12T01:26:12.134Z,997.48
2017-07-12T01:27:12.171Z,997.44
2017-07-12T01:28:12.209Z,997.41
2017-07-12T01:29:12.250Z,997.41
2017-07-12T01:30:12.288Z,997.4
2017-07-12T01:31:12.330Z,997.46
2017-07-12T01:32:12.365Z,997.46
2017-07-12T01:33:12.406Z,997.45
2017-07-12T01:34:12.445Z,997.46
2017-07-12T01:35:12.486Z,997.41
2017-07-12T01:36:12.522Z,997.4
2017-07-12T01:37:12.561Z,997.41
2017-07-12T01:38:12.603Z,997.4
2017-07-12T01:39:12.644Z,997.38
2017-07-12T01:40:12.681Z,997.35
2017-07-12T01:41:12.717Z,997.36
2017-07-12T01:42:12.756Z,997.33
2017-07-12T01:43:12.796Z,997.33
2017-07-12T01:44:12.835Z,997.33
2017-07-12T01:45:12.875Z,997.34
2017-07-12T01:46:12.912Z,997.33
2017-07-12T01:47:12.953Z,997.27
2017-07-12T01:48:12.989Z,997.29
2017-07-12T01:49:13.032Z,997.26
2017-07-12T01:50:13.071Z,997.26
2017-07-12T01:51:13.109Z,997.27
2017-07-12T01:52:13.146Z,997.28
2017-07-12T01:53:13.188Z,997.34
2017-07-12T01:54:13.223Z,997.26
2017-07-12T01:55:13.264Z,997.3
2017-07-12T01:56:13.302Z,997.31
2017-07-12T01:57:13.343Z,997.29
2017-07-12T01:58:13.383Z,997.33
2017-07-12T01:59:13.418Z,997.31
2017-07-12T02:00:13.461Z,997.33
2017-07-12T02:01:13.499Z,997.31
2017-07-12T02:02:13.538Z,997.28
2017-07-12T02:03:13.577Z,997.32
2017-07-12T02:04:13.614Z,997.31
2017-07-12T02:05:13.653Z,997.29
2017-07-12T02:06:13.693Z,997.34
2017-07-12T02:07:13.732Z,997.37
2017-07-12T02:08:13.772Z,997.35
2017-07-12T02:09:13.811Z,997.36
2017-07-12T02:10:13.847Z,997.38
2017-07-12T02:11:13.887Z,997.39
2017-07-12T02:12:13.929Z,997.38
2017-07-12T02:13:13.967Z,997.38
2017-07-12T02:14:14.007Z,997.33
2017-07-12T02:15:14.047Z,997.35
2017-07-12T02:16:14.082Z,997.34
2017-07-12T02:17:14.124Z,997.33
2017-07-12T02:18:14.160Z,997.33
2017-07-12T02:19:14.203Z,997.34
2017-07-12T02:20:14.239Z,997.3
2017-07-12T02:21:14.279Z,997.31
2017-07-12T02:22:14.320Z,997.28
2017-07-12T02:23:14.357Z,997.27
2017-07-12T02:24:14.394Z,997.26
2017-07-12T02:25:14.436Z,997.26
2017-07-12T02:26:14.472Z,997.26
2017-07-12T02:27:14.510Z,997.27
2017-07-12T02:28:14.551Z,997.26
2017-07-12T02:29:14.592Z,997.28
2017-07-12T02:30:14.631Z,997.28
2017-07-12T02:31:14.670Z,997.26
2017-07-12T02:32:14.708Z,997.24
2017-07-12T02:33:14.747Z,997.24
2017-07-12T02:34:14.786Z,997.26
2017-07-12T02:35:14.826Z,997.26
2017-07-12T02:36:14.864Z,997.26
2017-07-12T02:37:14.901Z,997.22
2017-07-12T02:38:14.942Z,997.22
2017-07-12T02:39:14.978Z,997.2
2017-07-12T02:40:15.021Z,997.28
2017-07-12T02:41:15.060Z,997.25
2017-07-12T02:42:15.095Z,997.24
2017-07-12T02:43:15.141Z,997.24
2017-07-12T02:44:15.177Z,997.25
2017-07-12T02:45:15.213Z,997.23
2017-07-12T02:46:15.252Z,997.24
2017-07-12T02:47:15.293Z,997.24
2017-07-12T02:48:15.332Z,997.24
2017-07-12T02:49:15.369Z,997.18
2017-07-12T02:50:15.409Z,997.2
2017-07-12T02:51:15.446Z,997.22
2017-07-12T02:52:15.489Z,997.24
2017-07-12T02:53:15.525Z,997.21
2017-07-12T02:54:15.563Z,997.22
2017-07-12T02:55:15.605Z,997.2
2017-07-12T02:56:15.641Z,997.21
2017-07-12T02:57:15.679Z,997.19
2017-07-12T02:58:15.721Z,997.17
2017-07-12T02:59:15.760Z,997.21
2017-07-12T03:00:15.795Z,997.21
2017-07-12T03:01:15.838Z,997.23
2017-07-12T03:02:15.876Z,997.22
2017-07-12T03:03:15.915Z,997.23
2017-07-12T03:04:15.951Z,997.22
2017-07-12T03:05:15.991Z,997.22
2017-07-12T03:06:16.028Z,997.27
2017-07-12T03:07:16.070Z,997.24
2017-07-12T03:08:16.107Z,997.25
2017-07-12T03:09:16.148Z,997.28
2017-07-12T03:10:16.187Z,997.23
2017-07-12T03:11:16.222Z,997.21
2017-07-12T03:12:16.264Z,997.14
2017-07-12T03:13:16.304Z,997.12
2017-07-12T03:14:16.342Z,997.11
2017-07-12T03:15:16.381Z,997.1
2017-07-12T03:16:16.417Z,997.16
2017-07-12T03:17:16.459Z,997.13
2017-07-12T03:18:16.496Z,997.14
2017-07-12T03:19:16.534Z,997.15
2017-07-12T03:20:16.573Z,997.2
2017-07-12T03:21:16.614Z,997.21
2017-07-12T03:22:16.649Z,997.23
2017-07-12T03:23:16.690Z,997.17
2017-07-12T03:24:16.730Z,997.19
2017-07-12T03:25:16.773Z,997.19
2017-07-12T03:26:16.808Z,997.11
2017-07-12T03:27:16.847Z,997.1
2017-07-12T03:28:16.883Z,997.12
2017-07-12T03:29:16.927Z,997.06
2017-07-12T03:30:16.963Z,997.13
2017-07-12T03:31:17.000Z,997.12
2017-07-12T03:32:17.040Z,997.17
2017-07-12T03:33:17.077Z,997.16
2017-07-12T03:34:17.117Z,997.14
2017-07-12T03:35:17.157Z,997.15
2017-07-12T03:36:17.196Z,997.12
2017-07-12T03:37:17.245Z,997.17
2017-07-12T03:38:17.272Z,997.14
2017-07-12T03:39:17.315Z,997.13
2017-07-12T03:40:17.352Z,997.1
2017-07-12T03:41:17.392Z,997.08
2017-07-12T03:42:17.433Z,997.06
2017-07-12T03:43:17.472Z,997.12
2017-07-12T03:44:17.511Z,997.1
2017-07-12T03:45:17.551Z,997.1
2017-07-12T03:46:17.588Z,997.09
2017-07-12T03:47:17.632Z,997.1
2017-07-12T03:48:17.670Z,997.12
2017-07-12T03:49:17.712Z,997.18
2017-07-12T03:50:17.749Z,997.17
2017-07-12T03:51:17.791Z,997.2
2017-07-12T03:52:17.831Z,997.21
2017-07-12T03:53:17.871Z,997.22
2017-07-12T03:54:17.914Z,997.27
2017-07-12T03:55:17.951Z,997.18
2017-07-12T03:56:17.995Z,997.16
2017-07-12T03:57:18.037Z,997.16
2017-07-12T03:58:18.075Z,997.11
2017-07-12T03:59:18.118Z,997.18
2017-07-12T04:00:18.159Z,997.17
2017-07-12T04:01:18.200Z,997.15
2017-07-12T04:02:18.241Z,997.14
2017-07-12T04:03:18.281Z,997.09
2017-07-12T04:04:18.322Z,997.05
2017-07-12T04:05:18.475Z,997.05
2017-07-12T04:06:18.403Z,996.99
2017-07-12T04:07:18.443Z,997.04
2017-07-12T04:08:18.486Z,996.96
2017-07-12T04:09:18.522Z,996.96
2017-07-12T04:10:18.565Z,997
2017-07-12T04:11:18.604Z,997.03
2017-07-12T04:12:18.646Z,997.05
2017-07-12T04:13:18.686Z,997.05
2017-07-12T04:14:18.727Z,997.08
2017-07-12T04:15:18.765Z,997.1
2017-07-12T04:16:18.806Z,997.01
2017-07-12T04:17:18.845Z,997.09
2017-07-12T04:18:18.888Z,997.07
2017-07-12T04:19:18.928Z,997.05
2017-07-12T04:20:18.968Z,997.07
2017-07-12T04:21:19.005Z,997.07
2017-07-12T04:22:19.047Z,996.99
2017-07-12T04:23:19.144Z,997.01
2017-07-12T04:24:19.129Z,997.01
2017-07-12T04:25:19.166Z,997.07
2017-07-12T04:26:19.209Z,997.09
2017-07-12T04:27:19.247Z,997.08
2017-07-12T04:28:19.289Z,997.07
2017-07-12T04:29:19.326Z,997.05
2017-07-12T04:30:19.428Z,997.09
2017-07-12T04:31:19.407Z,997.09
2017-07-12T04:32:19.446Z,997.06
2017-07-12T04:33:19.488Z,997.09
2017-07-12T04:34:19.533Z,997.11
2017-07-12T04:35:19.568Z,997.07
2017-07-12T04:36:19.609Z,997.11
2017-07-12T04:37:19.657Z,997.07
2017-07-12T04:38:19.689Z,997.05
2017-07-12T04:39:19.725Z,997.06
2017-07-12T04:40:19.768Z,997.08
2017-07-12T04:41:19.808Z,997.07
2017-07-12T04:42:19.845Z,997.07
2017-07-12T04:43:19.888Z,997.1
2017-07-12T04:44:19.928Z,997.11
2017-07-12T04:45:19.966Z,997.08
2017-07-12T04:46:20.004Z,997.06
2017-07-12T04:47:20.078Z,997.02
2017-07-12T04:48:20.086Z,997.03
2017-07-12T04:49:20.127Z,997.04
2017-07-12T04:50:20.164Z,997.04
2017-07-12T04:51:20.247Z,997
2017-07-12T04:52:20.247Z,996.98
2017-07-12T04:53:20.284Z,996.95
2017-07-12T04:54:20.327Z,996.93
2017-07-12T04:55:20.366Z,996.91
2017-07-12T04:56:20.404Z,996.93
2017-07-12T04:57:20.446Z,996.93
2017-07-12T04:58:20.483Z,996.92
2017-07-12T04:59:20.523Z,996.87
2017-07-12T05:00:20.566Z,996.9
2017-07-12T05:01:20.605Z,996.88
2017-07-12T05:02:20.646Z,996.85
2017-07-12T05:03:20.684Z,996.85
2017-07-12T05:04:20.725Z,996.84
2017-07-12T05:05:20.762Z,996.85
2017-07-12T05:06:20.806Z,996.81
2017-07-12T05:07:20.843Z,996.84
2017-07-12T05:08:20.885Z,996.84
2017-07-12T05:09:20.925Z,996.79
2017-07-12T05:10:20.962Z,996.84
2017-07-12T05:11:21.005Z,996.78
2017-07-12T05:12:21.045Z,996.76
2017-07-12T05:13:21.082Z,996.72
2017-07-12T05:14:21.123Z,996.73
2017-07-12T05:15:21.163Z,996.77
2017-07-12T05:16:21.204Z,996.71
2017-07-12T05:17:21.243Z,996.69
2017-07-12T05:18:21.282Z,996.71
2017-07-12T05:19:21.323Z,996.73
2017-07-12T05:20:21.361Z,996.74
2017-07-12T05:21:21.402Z,996.71
2017-07-12T05:22:21.442Z,996.74
2017-07-12T05:23:21.481Z,996.72
2017-07-12T05:24:21.525Z,996.74
2017-07-12T05:25:21.563Z,996.76
2017-07-12T05:26:21.604Z,996.75
2017-07-12T05:27:21.645Z,996.73
2017-07-12T05:28:21.682Z,996.76
2017-07-12T05:29:21.724Z,996.76
2017-07-12T05:30:21.764Z,996.76
2017-07-12T05:31:21.801Z,996.77
2017-07-12T05:32:21.844Z,996.77
2017-07-12T05:33:21.882Z,996.69
2017-07-12T05:34:21.927Z,996.73
2017-07-12T05:35:21.962Z,996.71
2017-07-12T05:36:22.004Z,996.73
2017-07-12T05:37:22.214Z,996.75
2017-07-12T05:38:22.085Z,996.8
2017-07-12T05:39:22.124Z,996.81
2017-07-12T05:40:22.164Z,996.8
2017-07-12T05:41:22.378Z,996.8
2017-07-12T05:42:22.243Z,996.83
2017-07-12T05:43:22.286Z,996.79
2017-07-12T05:44:22.326Z,996.79
2017-07-12T05:45:22.363Z,996.79
2017-07-12T05:46:22.608Z,996.77
2017-07-12T05:47:22.448Z,996.79
2017-07-12T05:48:22.487Z,996.79
2017-07-12T05:49:22.527Z,996.83
2017-07-12T05:50:22.566Z,996.8
2017-07-12T05:51:22.609Z,996.77
2017-07-12T05:52:22.647Z,996.77
2017-07-12T05:53:22.690Z,996.73
2017-07-12T05:54:22.729Z,996.68
2017-07-12T05:55:22.770Z,996.66
2017-07-12T05:56:22.814Z,996.62
2017-07-12T05:57:22.852Z,996.67
2017-07-12T05:58:22.893Z,996.66
2017-07-12T05:59:22.933Z,996.66
2017-07-12T06:00:22.974Z,996.67
2017-07-12T06:01:23.012Z,996.65
2017-07-12T06:02:23.055Z,996.65
2017-07-12T06:03:23.099Z,996.7
2017-07-12T06:04:23.157Z,996.72
2017-07-12T06:05:23.175Z,996.67
2017-07-12T06:06:23.217Z,996.66
2017-07-12T06:07:23.256Z,996.66
2017-07-12T06:08:23.299Z,996.68
2017-07-12T06:09:23.337Z,996.7
2017-07-12T06:10:23.379Z,996.72
2017-07-12T06:11:23.421Z,996.68
2017-07-12T06:12:23.458Z,996.66
2017-07-12T06:13:23.502Z,996.64
2017-07-12T06:14:23.541Z,996.65
2017-07-12T06:15:23.582Z,996.62
2017-07-12T06:16:23.649Z,996.59
2017-07-12T06:17:23.671Z,996.58
2017-07-12T06:18:23.704Z,996.58
2017-07-12T06:19:23.760Z,996.57
2017-07-12T06:20:23.783Z,996.53
2017-07-12T06:21:23.825Z,996.57
2017-07-12T06:22:23.862Z,996.55
2017-07-12T06:23:23.905Z,996.53
2017-07-12T06:24:23.945Z,996.52
2017-07-12T06:25:23.986Z,996.52
2017-07-12T06:26:24.063Z,996.53
2017-07-12T06:27:24.099Z,996.48
2017-07-12T06:28:24.104Z,996.52
2017-07-12T06:29:24.147Z,996.51
2017-07-12T06:30:24.186Z,996.51
2017-07-12T06:31:24.225Z,996.52
2017-07-12T06:32:24.268Z,996.5
2017-07-12T06:33:24.309Z,996.46
2017-07-12T06:34:24.351Z,996.48
2017-07-12T06:35:24.388Z,996.48
2017-07-12T06:36:24.483Z,996.48
2017-07-12T06:37:24.469Z,996.51
2017-07-12T06:38:24.507Z,996.47
2017-07-12T06:39:24.549Z,996.49
2017-07-12T06:40:24.588Z,996.45
2017-07-12T06:41:24.984Z,996.43
2017-07-12T06:42:24.668Z,996.42
2017-07-12T06:43:24.708Z,996.42
2017-07-12T06:44:24.750Z,996.39
2017-07-12T06:45:24.788Z,996.39
2017-07-12T06:46:24.833Z,996.41
2017-07-12T06:47:24.870Z,996.43
2017-07-12T06:48:24.911Z,996.4
2017-07-12T06:49:24.952Z,996.41
2017-07-12T06:50:24.989Z,996.37
2017-07-12T06:51:25.033Z,996.36
2017-07-12T06:52:25.071Z,996.34
2017-07-12T06:53:25.111Z,996.32
2017-07-12T06:54:25.153Z,996.33
2017-07-12T06:55:25.191Z,996.35
2017-07-12T06:56:25.232Z,996.35
2017-07-12T06:57:25.274Z,996.35
2017-07-12T06:58:25.316Z,996.32
2017-07-12T06:59:25.355Z,996.31
2017-07-12T07:00:25.397Z,996.33
2017-07-12T07:01:25.436Z,996.28
2017-07-12T07:02:25.475Z,996.27
2017-07-12T07:03:25.516Z,996.26
2017-07-12T07:04:25.563Z,996.2
2017-07-12T07:05:25.598Z,996.18
2017-07-12T07:06:25.640Z,996.13
2017-07-12T07:07:25.681Z,996.14
2017-07-12T07:08:25.719Z,996.1
2017-07-12T07:09:25.759Z,996.12
2017-07-12T07:10:25.803Z,996.07
2017-07-12T07:11:25.843Z,996.12
2017-07-12T07:12:25.881Z,996.12
2017-07-12T07:13:25.924Z,996.12
2017-07-12T07:14:25.965Z,996.1
2017-07-12T07:15:26.004Z,996.13
2017-07-12T07:16:26.047Z,996.14
2017-07-12T07:17:26.087Z,996.11
2017-07-12T07:18:26.126Z,996.12
2017-07-12T07:19:26.165Z,996.13
2017-07-12T07:20:26.206Z,996.1
2017-07-12T07:21:26.250Z,996.14
2017-07-12T07:22:26.290Z,996.09
2017-07-12T07:23:26.328Z,996.1
2017-07-12T07:24:26.379Z,996.08
2017-07-12T07:25:26.415Z,996.08
2017-07-12T07:26:26.452Z,996.1
2017-07-12T07:27:26.495Z,996.02
2017-07-12T07:28:26.537Z,996.01
2017-07-12T07:29:26.576Z,995.99
2017-07-12T07:30:26.617Z,995.99
2017-07-12T07:31:26.656Z,996.04
2017-07-12T07:32:26.700Z,996
2017-07-12T07:33:26.738Z,996.03
2017-07-12T07:34:26.779Z,996.01
2017-07-12T07:35:26.822Z,995.99
2017-07-12T07:36:26.863Z,995.99
2017-07-12T07:37:26.902Z,996
2017-07-12T07:38:26.942Z,995.95
2017-07-12T07:39:26.986Z,995.94
2017-07-12T07:40:27.027Z,995.89
2017-07-12T07:41:27.065Z,995.88
2017-07-12T07:42:27.106Z,995.87
2017-07-12T07:43:27.151Z,995.84
2017-07-12T07:44:27.189Z,995.83
2017-07-12T07:45:27.232Z,995.85
2017-07-12T07:46:27.273Z,995.82
2017-07-12T07:47:27.312Z,995.83
2017-07-12T07:48:27.355Z,995.84
2017-07-12T07:49:27.397Z,995.83
2017-07-12T07:50:27.437Z,995.85
2017-07-12T07:51:27.480Z,995.78
2017-07-12T07:52:27.518Z,995.78
2017-07-12T07:53:27.563Z,995.75
2017-07-12T07:54:27.602Z,995.73
2017-07-12T07:55:27.645Z,995.76
2017-07-12T07:56:27.789Z,995.77
2017-07-12T07:57:27.726Z,995.74
2017-07-12T07:58:27.768Z,995.74
2017-07-12T07:59:27.810Z,995.75
2017-07-12T08:00:27.856Z,995.71
2017-07-12T08:01:27.893Z,995.72
2017-07-12T08:02:27.934Z,995.65
2017-07-12T08:03:27.977Z,995.68
2017-07-12T08:04:28.019Z,995.69
2017-07-12T08:05:28.081Z,995.68
2017-07-12T08:06:28.102Z,995.69
2017-07-12T08:07:28.143Z,995.68
2017-07-12T08:08:28.187Z,995.72
2017-07-12T08:09:28.227Z,995.74
2017-07-12T08:10:28.272Z,995.74
2017-07-12T08:11:28.310Z,995.74
2017-07-12T08:12:28.354Z,995.75
2017-07-12T08:13:28.395Z,995.78
2017-07-12T08:14:28.436Z,995.8
2017-07-12T08:15:28.480Z,995.8
2017-07-12T08:16:28.521Z,995.79
2017-07-12T08:17:28.563Z,995.81
2017-07-12T08:18:28.607Z,995.85
2017-07-12T08:19:28.648Z,995.86
2017-07-12T08:20:28.690Z,995.76
2017-07-12T08:21:28.736Z,995.75
2017-07-12T08:22:28.777Z,995.82
2017-07-12T08:23:28.822Z,995.81
2017-07-12T08:24:28.862Z,995.84
2017-07-12T08:25:28.909Z,995.79
2017-07-12T08:26:28.948Z,995.76
2017-07-12T08:27:28.995Z,995.71
2017-07-12T08:28:29.037Z,995.7
2017-07-12T08:29:29.082Z,995.64
2017-07-12T08:30:29.126Z,995.66
2017-07-12T08:31:29.172Z,995.63
2017-07-12T08:32:29.215Z,995.63
2017-07-12T08:33:29.262Z,995.63
2017-07-12T08:34:29.306Z,995.53
2017-07-12T08:35:29.350Z,995.62
2017-07-12T08:36:29.396Z,995.55
2017-07-12T08:37:29.440Z,995.63
2017-07-12T08:38:29.484Z,995.56
2017-07-12T08:39:29.531Z,995.64
2017-07-12T08:40:29.575Z,995.65
2017-07-12T08:41:29.617Z,995.68
2017-07-12T08:42:29.665Z,995.64
2017-07-12T08:43:29.705Z,995.66
2017-07-12T08:44:29.753Z,995.63
2017-07-12T08:45:29.795Z,995.64
2017-07-12T08:46:29.841Z,995.6
2017-07-12T08:47:29.882Z,995.58
2017-07-12T08:48:29.929Z,995.52
2017-07-12T08:49:29.971Z,995.55
2017-07-12T08:50:30.025Z,995.58
2017-07-12T08:51:30.062Z,995.58
2017-07-12T08:52:30.104Z,995.59
2017-07-12T08:53:30.151Z,995.54
2017-07-12T08:54:30.191Z,995.66
2017-07-12T08:55:30.244Z,995.59
2017-07-12T08:56:30.281Z,995.74
2017-07-12T08:57:30.328Z,995.62
2017-07-12T08:58:30.371Z,995.56
2017-07-12T08:59:30.417Z,995.46
2017-07-12T09:00:30.462Z,995.45
2017-07-12T09:01:30.511Z,995.43
2017-07-12T09:02:30.559Z,995.44
2017-07-12T09:03:30.602Z,995.4
2017-07-12T09:04:30.648Z,995.45
2017-07-12T09:05:30.693Z,995.4
2017-07-12T09:06:30.739Z,995.37
2017-07-12T09:07:30.786Z,995.36
2017-07-12T09:08:30.832Z,995.38
2017-07-12T09:09:30.876Z,995.33
2017-07-12T09:10:30.929Z,995.3
2017-07-12T09:11:30.967Z,995.3
2017-07-12T09:12:31.015Z,995.36
2017-07-12T09:13:31.061Z,995.34
2017-07-12T09:14:31.104Z,995.34
2017-07-12T09:15:31.152Z,995.27
2017-07-12T09:16:31.195Z,995.31
2017-07-12T09:17:31.243Z,995.25
2017-07-12T09:18:31.287Z,995.34
2017-07-12T09:19:31.339Z,995.29
2017-07-12T09:20:31.381Z,995.27
2017-07-12T09:21:31.424Z,995.28
2017-07-12T09:22:31.470Z,995.27
2017-07-12T09:23:31.516Z,995.36
2017-07-12T09:33:31.978Z,995.22
2017-07-12T09:34:32.022Z,995.26
2017-07-12T09:35:32.075Z,995.23
2017-07-12T09:36:32.114Z,995.18
2017-07-12T09:37:32.161Z,995.15
2017-07-12T09:38:32.212Z,995.08
2017-07-12T09:39:32.256Z,995.05
2017-07-12T09:40:32.302Z,995.08
2017-07-12T09:41:32.347Z,995.06
2017-07-12T09:42:32.395Z,995.05
2017-07-12T09:43:32.457Z,995.1
2017-07-12T09:44:32.488Z,995.09
2017-07-12T09:45:32.544Z,995.09
2017-07-12T09:46:32.577Z,995.02
2017-07-12T09:47:32.626Z,995.06
2017-07-12T09:48:32.671Z,995.06
2017-07-12T09:49:32.716Z,995.04
2017-07-12T09:50:32.765Z,995.04
2017-07-12T09:51:32.809Z,995.04
2017-07-12T09:52:32.855Z,995.05
2017-07-12T09:53:32.902Z,994.97
2017-07-12T09:54:32.955Z,994.95
2017-07-12T09:55:32.997Z,995
2017-07-12T09:56:33.042Z,994.94
2017-07-12T09:57:33.084Z,994.93
2017-07-12T09:58:33.131Z,994.9
2017-07-12T09:59:33.176Z,994.91
2017-07-12T10:00:33.222Z,994.94
2017-07-12T10:01:33.269Z,994.93
2017-07-12T10:02:33.316Z,994.93
2017-07-12T10:03:33.362Z,994.91
2017-07-12T10:04:33.407Z,995
2017-07-12T10:05:33.453Z,994.89
2017-07-12T10:06:33.497Z,994.86
2017-07-12T10:07:33.545Z,994.9
2017-07-12T10:08:33.592Z,994.91
2017-07-12T10:09:33.637Z,994.93
2017-07-12T10:10:33.683Z,994.95
2017-07-12T10:11:33.729Z,994.92
2017-07-12T10:12:33.792Z,994.91
2017-07-12T10:13:33.819Z,994.96
2017-07-12T10:14:33.866Z,994.87
2017-07-12T10:15:33.910Z,994.9
2017-07-12T10:16:33.955Z,994.89
2017-07-12T10:17:34.005Z,994.85
2017-07-12T10:18:34.047Z,994.85
2017-07-12T10:19:34.092Z,994.91
2017-07-12T10:20:34.139Z,994.88
2017-07-12T10:21:34.183Z,994.91
2017-07-12T10:22:34.227Z,994.87
2017-07-12T10:23:34.275Z,994.81
2017-07-12T10:24:34.321Z,994.88
2017-07-12T10:25:34.384Z,994.82
2017-07-12T10:26:34.410Z,994.82
2017-07-12T10:27:34.456Z,994.75
2017-07-12T10:28:34.509Z,994.75
2017-07-12T10:29:34.546Z,994.76
2017-07-12T10:30:34.590Z,994.77
2017-07-12T10:31:34.632Z,994.82
2017-07-12T10:32:34.679Z,994.78
2017-07-12T10:33:34.721Z,994.76
2017-07-12T10:34:34.775Z,994.76
2017-07-12T10:35:34.812Z,994.72
2017-07-12T10:36:34.857Z,994.72
2017-07-12T10:37:34.898Z,994.74
2017-07-12T10:38:34.942Z,994.77
2017-07-12T10:39:34.987Z,994.78
2017-07-12T10:40:35.032Z,994.76
2017-07-12T10:41:35.075Z,994.75
2017-07-12T10:42:35.122Z,994.75
2017-07-12T10:43:35.166Z,994.67
2017-07-12T10:44:35.212Z,994.66
2017-07-12T10:45:35.257Z,994.63
2017-07-12T10:46:35.302Z,994.61
2017-07-12T10:47:35.345Z,994.55
2017-07-12T10:48:35.392Z,994.53
2017-07-12T10:50:35.482Z,994.55
2017-07-12T10:51:35.526Z,994.56
2017-07-12T10:52:35.575Z,994.43
2017-07-12T10:53:35.617Z,994.51
2017-07-12T10:54:35.662Z,994.4
2017-07-12T10:55:35.709Z,994.5
2017-07-12T10:56:35.756Z,994.49
2017-07-12T10:57:35.800Z,994.45
2017-07-12T10:58:35.846Z,994.46
2017-07-12T10:59:35.887Z,994.5
2017-07-12T11:00:35.935Z,994.3
2017-07-12T11:01:35.977Z,994.37
2017-07-12T11:02:36.024Z,994.35
2017-07-12T11:03:36.069Z,994.35
2017-07-12T11:04:36.111Z,994.37
2017-07-12T11:05:36.159Z,994.35
2017-07-12T11:06:36.201Z,994.34
2017-07-12T11:07:36.246Z,994.3
2017-07-12T11:08:36.292Z,994.29
2017-07-12T11:09:36.337Z,994.35
2017-07-12T11:10:36.379Z,994.38
2017-07-12T11:11:36.422Z,994.38
2017-07-12T11:12:36.468Z,994.36
2017-07-12T11:13:36.512Z,994.33
2017-07-12T11:14:36.556Z,994.3
2017-07-12T11:15:36.601Z,994.33
2017-07-12T11:16:36.643Z,994.25
2017-07-12T11:17:36.686Z,994.33
2017-07-12T11:18:36.729Z,994.27
2017-07-12T11:19:36.773Z,994.22
2017-07-12T11:20:36.819Z,994.21
2017-07-12T11:21:36.859Z,994.21
2017-07-12T11:22:36.905Z,994.2
2017-07-12T11:23:36.947Z,994.2
2017-07-12T11:24:36.990Z,994.14
2017-07-12T11:25:37.033Z,994.15
2017-07-12T11:26:37.079Z,994.19
2017-07-12T11:27:37.119Z,994.21
2017-07-12T11:28:37.162Z,994.17
2017-07-12T11:29:37.206Z,994.14
2017-07-12T11:30:37.249Z,994.15
2017-07-12T11:31:37.290Z,994.2
2017-07-12T11:32:37.335Z,994.23
2017-07-12T11:33:37.376Z,994.23
2017-07-12T11:34:37.421Z,994.27
2017-07-12T11:35:37.461Z,994.23
2017-07-12T11:36:37.506Z,994.23
2017-07-12T11:37:37.549Z,994.25
2017-07-12T11:38:37.590Z,994.24
2017-07-12T11:39:37.635Z,994.23
2017-07-12T11:40:37.676Z,994.24
2017-07-12T11:41:37.718Z,994.24
2017-07-12T11:42:37.763Z,994.2
2017-07-12T11:43:37.806Z,994.25
2017-07-12T11:44:37.846Z,994.23
2017-07-12T11:45:37.892Z,994.25
2017-07-12T11:46:37.932Z,994.23
2017-07-12T11:47:37.974Z,994.24
2017-07-12T11:48:38.020Z,994.24
2017-07-12T11:49:38.061Z,994.28
2017-07-12T11:50:38.105Z,994.24
2017-07-12T11:51:38.143Z,994.25
2017-07-12T11:52:38.189Z,994.23
2017-07-12T11:53:38.228Z,994.28
2017-07-12T11:54:38.277Z,994.26
2017-07-12T11:55:38.316Z,994.26
2017-07-12T11:56:38.357Z,994.27
2017-07-12T11:57:38.401Z,994.24
2017-07-12T11:58:38.442Z,994.25
2017-07-12T11:59:38.485Z,994.27
2017-07-12T12:00:38.526Z,994.27
2017-07-12T12:01:38.571Z,994.23
2017-07-12T12:02:38.613Z,994.24
2017-07-12T12:03:38.655Z,994.29
2017-07-12T12:04:38.701Z,994.25
2017-07-12T12:05:38.740Z,994.31
2017-07-12T12:06:38.780Z,994.25
2017-07-12T12:07:38.824Z,994.26
2017-07-12T12:08:38.866Z,994.26
2017-07-12T12:09:38.906Z,994.29
2017-07-12T12:10:38.949Z,994.28
2017-07-12T12:11:38.994Z,994.33
2017-07-12T12:12:39.032Z,994.33
2017-07-12T12:13:39.078Z,994.36
2017-07-12T12:14:39.116Z,994.37
2017-07-12T12:15:39.160Z,994.38
2017-07-12T12:16:39.204Z,994.43
2017-07-12T12:17:39.242Z,994.42
2017-07-12T12:18:39.287Z,994.42
2017-07-12T12:19:39.327Z,994.49
2017-07-12T12:20:39.370Z,994.48
2017-07-12T12:21:39.413Z,994.47
2017-07-12T12:22:39.453Z,994.51
2017-07-12T12:23:39.493Z,994.54
2017-07-12T12:24:39.539Z,994.59
2017-07-12T12:25:39.581Z,994.57
2017-07-12T12:26:39.618Z,994.52
2017-07-12T12:27:39.663Z,994.61
2017-07-12T12:28:39.703Z,994.58
2017-07-12T12:29:39.748Z,994.6
2017-07-12T12:30:39.785Z,994.62
2017-07-12T12:31:39.831Z,994.63
2017-07-12T12:32:39.870Z,994.62
2017-07-12T12:33:39.912Z,994.64
2017-07-12T12:34:39.954Z,994.62
2017-07-12T12:35:39.994Z,994.71
2017-07-12T12:36:40.039Z,994.68
2017-07-12T12:37:40.077Z,994.71
2017-07-12T12:38:40.121Z,994.72
2017-07-12T12:39:40.160Z,994.73
2017-07-12T12:40:40.204Z,994.74